Menu       Home   X °F

Selecionar outro período ( Esconder esta área )

Unidade Período Personalizar data Ir para
Métrica Imperial Ambos
Dia Semana Mês Ano
use ambos os seletores de data para um intervalo de tempo pretendido
dia anterior
Data de inicio
Dia resumo de Segunda-feira 17 Junho 2024
Hora Temp. ( °C ) Ponto de orvalho ( °C ) Vento ( km/h ) Direcção do vento Rajada ( km/h ) Pressão ( hPa ) Humid.( % ) Taxa de precipitação ( cm )
Máxima22,7 17,9 18,0 WSW ( 636/2211 ) 28,0 1016,6 99 -
Média19,5 16,0 8,7 SW #63/253 11,6 1013,8 81 -
Mínima15,5 14,6 1,0   2,0 1011,5 61 -
Dia detalhado de Segunda-feira 17 Junho 2024
Hora Temp. ( °C ) Ponto de orvalho ( °C ) Vento ( km/h ) Direcção do vento Rajada ( km/h ) Pressão ( hPa ) Humid.( % ) Taxa de precipitação ( cm )
00:04 18,5 15,6 6,0 NW 7,0 1016,6 83 -
00:09 18,5 15,6 7,0 NW 9,0 1016,6 83 -
00:14 18,4 15,5 6,0 NW 9,0 1016,6 83 -
00:19 18,5 15,6 6,0 NW 7,0 1016,5 83 -
00:24 18,5 15,7 6,0 WNW 7,0 1016,4 84 -
00:29 18,5 15,7 5,0 NW 6,0 1016,3 84 -
00:34 18,4 15,6 4,0 WNW 4,0 1016,4 84 -
00:39 18,4 15,6 5,0 WNW 7,0 1016,2 84 -
00:44 18,4 15,6 7,0 WNW 7,0 1016,2 84 -
00:49 18,3 15,6 6,0 NW 7,0 1016,1 84 -
00:54 18,4 15,6 6,0 NW 7,0 1016,2 84 -
00:59 18,3 15,6 6,0 NW 7,0 1016,1 84 -
01:04 18,3 15,6 7,0 WNW 9,0 1016,1 84 -
01:09 18,3 15,6 7,0 NW 9,0 1016,1 84 -
01:14 18,3 15,6 6,0 WNW 7,0 1016,1 84 -
01:19 18,3 15,6 9,0 NW 13,0 1015,9 84 -
01:24 18,3 15,7 8,0 NW 9,0 1015,9 85 -
01:29 18,3 15,7 6,0 NW 7,0 1015,9 85 -
01:34 18,2 15,6 8,0 NW 9,0 1015,9 85 -
01:39 18,2 15,6 7,0 WNW 9,0 1016,0 85 -
01:44 18,3 15,7 6,0 WNW 7,0 1016,0 85 -
01:49 18,2 15,6 4,0 WNW 6,0 1015,9 85 -
01:54 18,2 15,6 7,0 NW 9,0 1015,9 85 -
01:59 18,2 15,6 6,0 WNW 6,0 1015,7 85 -
02:04 18,2 15,6 6,0 WNW 7,0 1015,8 85 -
02:09 18,2 15,6 5,0 WNW 7,0 1015,7 85 -
02:14 18,2 15,6 4,0 West 6,0 1015,7 85 -
02:19 18,1 15,5 3,0 WNW 4,0 1015,5 85 -
02:24 18,1 15,5 4,0 NW 6,0 1015,5 85 -
02:29 18,1 15,5 4,0 WNW 4,0 1015,4 85 -
02:34 18,0 15,4 3,0 WNW 4,0 1015,4 85 -
02:39 18,0 15,6 2,0 WNW 4,0 1015,5 86 -
02:44 18,0 15,6 5,0 WNW 6,0 1015,3 86 -
02:49 18,0 15,6 5,0 NW 6,0 1015,3 86 -
02:54 18,0 15,6 3,0 WNW 4,0 1015,2 86 -
02:59 17,9 15,5 1,0 West 2,0 1015,1 86 -
03:04 17,9 15,5 3,0 WNW 4,0 1015,3 86 -
03:09 17,9 15,7 6,0 NW 6,0 1015,0 87 -
03:14 17,9 15,7 6,0 West 6,0 1015,1 87 -
03:19 17,7 15,5 4,0 West 6,0 1015,3 88 -
03:24 17,5 15,5 3,0 West 4,0 1014,8 88 -
03:29 17,3 15,4 3,0 WSW 4,0 1014,8 89 -
03:34 17,2 15,3 4,0 WSW 4,0 1014,8 89 -
03:39 17,1 15,4 4,0 WSW 6,0 1014,8 90 -
03:44 17,0 15,3 2,0 WSW 2,0 1014,7 90 -
03:49 17,0 15,3 3,0 SW 4,0 1014,7 90 -
03:54 16,9 15,4 2,0 West 4,0 1014,7 91 -
03:59 16,8 15,4 2,0 WSW 4,0 1014,8 91 -
04:04 16,8 15,4 3,0 WSW 4,0 1014,7 91 -
04:09 16,7 15,4 3,0 West 4,0 1014,6 92 -
04:14 16,6 15,3 3,0 SW 4,0 1014,7 92 -
04:19 16,6 15,3 4,0 WSW 4,0 1014,6 93 -
04:24 16,5 15,3 2,0 WSW 4,0 1014,4 93 -
04:29 16,4 15,2 3,0 SW 4,0 1014,5 93 -
04:34 16,3 15,1 3,0 SW 4,0 1014,6 93 -
04:39 16,2 15,1 3,0 SW 4,0 1014,6 94 -
04:44 16,2 15,1 2,0 SW 4,0 1014,5 94 -
04:49 16,1 15,0 2,0 SW 4,0 1014,4 94 -
04:54 16,1 15,0 2,0 SSW 4,0 1014,5 94 -
04:59 16,1 15,3 1,0 South 2,0 1014,4 95 -
05:04 16,1 15,3 2,0 SSW 4,0 1014,4 95 -
05:09 16,0 15,2 1,0 SSW 2,0 1014,5 95 -
05:14 16,0 15,2 2,0 SSW 2,0 1014,4 95 -
05:19 16,0 15,2 2,0 SSW 4,0 1014,5 95 -
05:24 16,0 15,2 2,0 SSW 4,0 1014,5 95 -
05:29 16,0 15,2 2,0 SSW 2,0 1014,4 95 -
05:34 16,0 15,4 3,0 SSW 4,0 1014,3 96 -
05:39 16,0 15,4 2,0 SW 2,0 1014,3 96 -
05:44 16,0 15,4 3,0 SW 4,0 1014,4 96 -
05:49 16,0 15,4 4,0 SSW 6,0 1014,4 96 -
05:54 16,0 15,4 4,0 South 6,0 1014,4 96 -
05:59 15,8 15,2 3,0 South 4,0 1014,3 96 -
06:04 15,7 15,1 4,0 South 6,0 1014,3 96 -
06:09 15,7 15,1 4,0 SSW 6,0 1014,5 96 -
06:14 15,6 15,2 6,0 SSW 7,0 1014,4 97 -
06:19 15,6 15,2 6,0 South 7,0 1014,4 97 -
06:24 15,5 15,1 4,0 SSW 6,0 1014,4 97 -
06:29 15,5 15,1 4,0 SSW 6,0 1014,4 97 -
06:34 15,5 15,2 4,0 SW 6,0 1014,4 98 -
06:39 15,5 15,2 4,0 SW 4,0 1014,3 98 -
06:44 15,5 15,2 5,0 SW 6,0 1014,4 98 -
06:49 15,5 15,2 6,0 SW 6,0 1014,2 98 -
06:54 15,5 15,2 5,0 SW 6,0 1014,2 98 -
06:59 15,5 15,3 5,0 SSW 7,0 1014,3 99 -
07:04 15,6 15,4 4,0 SW 6,0 1014,3 99 -
07:09 15,7 15,5 3,0 SW 4,0 1014,3 99 -
07:14 15,8 15,6 4,0 SSW 6,0 1014,1 99 -
07:19 15,9 15,7 6,0 SW 6,0 1014,3 99 -
07:24 16,1 15,8 4,0 SW 4,0 1014,3 99 -
07:29 16,2 15,9 3,0 SW 4,0 1014,2 98 -
07:34 16,5 16,2 3,0 SSW 4,0 1014,1 98 -
07:39 16,5 16,2 4,0 SW 6,0 1014,3 98 -
07:44 16,8 16,4 4,0 SSW 6,0 1014,2 98 -
07:49 17,4 17,0 1,0 SSW 2,0 1014,2 97 -
07:54 17,5 17,1 4,0 SSW 6,0 1014,1 97 -
07:59 17,3 16,7 4,0 South 4,0 1014,3 96 -
08:04 17,5 16,7 4,0 South 6,0 1014,2 95 -
08:09 17,6 16,7 3,0 SW 6,0 1014,0 95 -
08:14 17,7 16,5 4,0 SW 4,0 1014,1 94 -
08:19 18,2 16,8 2,0 WSW 4,0 1014,1 93 -
08:24 18,3 16,8 5,0 SSW 6,0 1014,2 91 -
08:29 18,4 16,7 6,0 West 7,0 1014,3 91 -
08:34 18,5 16,6 6,0 WSW 7,0 1014,1 89 -
08:39 19,0 16,8 6,0 SW 9,0 1014,3 89 -
08:44 19,0 16,8 7,0 West 9,0 1014,2 87 -
08:49 19,1 16,2 7,0 West 9,0 1014,1 84 -
08:54 19,2 16,2 7,0 WSW 9,0 1014,2 83 -
08:59 19,5 16,0 6,0 SW 9,0 1014,0 82 -
09:04 19,7 16,2 6,0 SW 7,0 1014,1 80 -
09:09 20,0 16,4 10,0 WNW 11,0 1014,1 80 -
09:14 20,0 16,1 9,0 West 9,0 1014,0 78 -
09:19 20,2 16,0 6,0 West 7,0 1014,1 78 -
09:24 20,5 16,1 4,0 South 6,0 1013,9 76 -
09:29 20,8 16,3 8,0 SW 9,0 1013,9 76 -
09:34 20,9 16,0 7,0 West 11,0 1013,9 75 -
09:39 21,1 16,2 4,0 West 6,0 1013,8 74 -
09:44 21,1 16,1 6,0 WSW 7,0 1013,7 74 -
09:49 21,1 15,9 5,0 NW 6,0 1013,7 73 -
09:54 21,2 15,7 6,0 WSW 9,0 1013,6 72 -
09:59 21,0 15,8 6,0 West 9,0 1013,5 72 -
10:04 20,9 15,7 4,0 West 6,0 1013,5 73 -
10:09 20,9 15,7 9,0 West 11,0 1013,8 72 -
10:14 21,3 15,4 6,0 WNW 7,0 1013,7 71 -
10:19 21,9 15,6 8,0 WSW 11,0 1013,6 69 -
10:24 21,9 15,5 9,0 West 11,0 1013,6 68 -
10:29 21,5 15,4 7,0 West 9,0 1013,5 68 -
10:34 21,7 15,3 9,0 WSW 9,0 1013,6 67 -
10:39 21,8 15,2 9,0 SW 11,0 1013,5 68 -
10:44 21,8 15,2 8,0 SSW 11,0 1013,6 66 -
10:49 21,9 14,9 10,0 West 13,0 1013,7 65 -
10:54 22,2 14,9 11,0 WSW 17,0 1013,7 64 -
10:59 22,2 14,8 12,0 West 18,0 1013,8 63 -
11:04 22,4 14,7 13,0 WNW 15,0 1013,8 63 -
11:09 22,5 14,6 12,0 WNW 15,0 1013,9 61 -
11:14 22,5 14,6 12,0 West 15,0 1013,8 62 -
11:19 22,4 14,8 14,0 West 20,0 1013,9 62 -
11:24 22,2 14,6 11,0 West 15,0 1013,9 62 -
11:29 22,3 14,6 12,0 WSW 15,0 1014,1 62 -
11:34 22,5 14,9 12,0 West 17,0 1013,9 63 -
11:39 22,2 14,8 11,0 WSW 18,0 1013,8 63 -
11:44 22,1 14,8 15,0 WSW 18,0 1014,0 64 -
11:49 22,7 15,3 11,0 WSW 17,0 1013,8 64 -
11:54 22,7 15,3 14,0 West 18,0 1013,8 64 -
11:59 22,2 15,2 13,0 West 20,0 1014,0 65 -
12:04 22,3 15,2 15,0 WSW 20,0 1013,9 64 -
12:09 22,2 15,3 15,0 West 18,0 1014,0 65 -
12:14 21,9 15,4 14,0 West 17,0 1014,0 67 -
12:19 21,7 15,3 12,0 West 15,0 1013,9 67 -
12:24 22,3 15,7 12,0 WSW 17,0 1013,8 66 -
12:29 22,2 15,6 13,0 West 17,0 1014,0 67 -
12:34 21,8 15,5 18,0 WSW 22,0 1013,8 68 -
12:39 21,7 15,5 10,0 West 13,0 1013,9 68 -
12:44 21,6 15,6 12,0 WSW 17,0 1013,9 69 -
12:49 21,5 15,6 14,0 WSW 17,0 1013,9 69 -
12:54 21,4 15,3 14,0 WSW 18,0 1013,9 69 -
12:59 21,9 15,9 11,0 WSW 15,0 1013,7 69 -
13:04 22,0 16,1 12,0 SW 15,0 1013,9 69 -
13:09 21,9 16,0 10,0 West 17,0 1013,9 70 -
13:14 21,5 15,8 17,0 WNW 22,0 1013,6 71 -
13:19 21,6 16,0 11,0 West 15,0 1013,7 72 -
13:24 21,7 16,2 14,0 West 17,0 1013,6 72 -
13:29 21,4 16,0 14,0 WNW 18,0 1013,9 72 -
13:34 21,9 16,1 11,0 West 15,0 1013,7 70 -
13:39 21,9 16,2 14,0 SW 18,0 1013,7 70 -
13:44 21,9 16,0 16,0 West 20,0 1013,7 69 -
13:49 22,1 16,2 11,0 WSW 15,0 1013,5 69 -
13:54 22,3 16,6 16,0 WSW 18,0 1013,5 70 -
13:59 22,0 16,1 14,0 West 20,0 1013,3 70 -
14:04 22,4 16,3 12,0 SW 15,0 1013,3 69 -
14:09 22,4 16,3 13,0 WSW 17,0 1013,2 70 -
14:14 21,9 16,1 13,0 WSW 18,0 1013,2 70 -
14:19 21,8 16,2 10,0 WSW 15,0 1013,4 71 -
14:24 22,1 16,4 9,0 WSW 17,0 1013,1 70 -
14:29 22,1 16,5 16,0 WSW 20,0 1013,1 71 -
14:34 21,7 16,2 14,0 West 20,0 1013,4 71 -
14:39 21,7 16,3 11,0 West 13,0 1013,3 72 -
14:44 21,7 16,2 15,0 WSW 18,0 1013,2 71 -
14:49 21,3 15,8 15,0 West 20,0 1013,3 71 -
14:54 21,4 15,9 16,0 WSW 18,0 1013,2 71 -
14:59 21,5 16,0 11,0 West 15,0 1013,4 71 -
15:04 21,5 16,0 14,0 SW 18,0 1013,2 71 -
15:09 21,4 16,2 15,0 WSW 28,0 1013,4 73 -
15:14 21,2 15,9 13,0 SW 18,0 1013,3 72 -
15:19 21,4 15,9 14,0 SW 18,0 1013,4 71 -
15:24 22,0 16,1 12,0 WSW 15,0 1013,4 71 -
15:29 22,2 16,5 11,0 West 15,0 1013,0 71 -
15:34 22,4 16,7 14,0 WSW 18,0 1013,1 71 -
15:39 21,7 16,5 12,0 WSW 20,0 1013,2 73 -
15:44 21,4 16,3 14,0 WSW 17,0 1013,1 73 -
15:49 21,3 16,3 16,0 WSW 20,0 1013,1 73 -
15:54 21,3 16,3 14,0 WSW 18,0 1013,0 73 -
15:59 21,3 16,2 17,0 West 22,0 1013,0 73 -
16:04 21,3 16,3 17,0 West 20,0 1013,0 73 -
16:09 21,8 16,3 16,0 WSW 20,0 1013,0 72 -
16:14 21,8 16,3 15,0 WSW 20,0 1012,9 72 -
16:19 21,4 16,1 14,0 SW 18,0 1012,7 72 -
16:24 21,4 16,1 9,0 West 11,0 1012,8 72 -
16:29 21,3 16,0 15,0 WSW 18,0 1012,7 73 -
16:34 21,4 16,1 10,0 SW 15,0 1012,7 73 -
16:39 21,5 16,3 14,0 WSW 18,0 1012,7 73 -
16:44 21,0 16,0 13,0 SW 17,0 1012,7 73 -
16:49 21,0 16,0 12,0 West 17,0 1012,7 73 -
16:54 21,0 16,1 16,0 WSW 18,0 1012,5 74 -
16:59 21,1 16,3 11,0 South 15,0 1012,5 74 -
17:04 21,4 16,6 9,0 SSW 13,0 1012,5 74 -
17:09 21,5 16,7 12,0 SSW 17,0 1012,6 75 -
17:14 21,0 16,4 14,0 WSW 17,0 1012,7 75 -
17:19 20,9 16,5 11,0 SW 17,0 1012,5 76 -
17:24 20,9 16,4 12,0 SW 15,0 1012,4 76 -
17:29 20,9 16,5 12,0 WSW 17,0 1012,7 76 -
17:34 21,0 16,6 11,0 WSW 15,0 1012,6 76 -
17:39 21,0 16,9 12,0 WSW 18,0 1012,6 78 -
17:44 20,9 16,9 12,0 SW 17,0 1012,4 78 -
17:49 20,8 16,8 11,0 West 17,0 1012,6 78 -
17:54 20,8 16,8 11,0 SW 15,0 1012,3 78 -
17:59 20,8 16,8 11,0 SSW 13,0 1012,4 78 -
18:04 20,8 17,1 9,0 SSW 13,0 1012,1 79 -
18:09 20,9 16,9 13,0 SSW 17,0 1012,0 78 -
18:14 20,8 17,0 13,0 SW 18,0 1012,0 79 -
18:19 20,8 17,1 17,0 WSW 20,0 1012,0 79 -
18:24 20,7 17,0 11,0 SW 15,0 1012,1 79 -
18:29 20,7 17,1 13,0 SW 17,0 1012,1 80 -
18:34 20,7 17,1 9,0 SW 13,0 1012,1 80 -
18:39 20,6 17,0 14,0 SW 17,0 1011,9 80 -
18:44 20,5 17,1 13,0 SW 17,0 1011,8 81 -
18:49 20,5 17,0 14,0 SW 20,0 1012,2 81 -
18:54 20,3 17,1 13,0 WSW 17,0 1012,1 82 -
18:59 20,3 17,1 12,0 SSW 17,0 1011,8 82 -
19:04 20,3 17,3 12,0 SSW 17,0 1011,9 83 -
19:09 20,3 17,2 14,0 SW 18,0 1012,1 83 -
19:14 20,1 17,1 14,0 WSW 22,0 1012,1 83 -
19:19 20,2 17,2 12,0 SW 18,0 1012,2 83 -
19:24 20,2 17,2 16,0 SW 24,0 1012,0 83 -
19:29 20,2 17,4 17,0 SSW 20,0 1012,1 84 -
19:34 20,0 17,4 13,0 SW 18,0 1012,0 85 -
19:39 19,9 17,3 14,0 SW 17,0 1011,8 85 -
19:44 20,0 17,5 16,0 SSW 20,0 1011,9 86 -
19:49 19,9 17,5 12,0 SW 15,0 1011,8 86 -
19:54 19,9 17,5 13,0 SW 20,0 1011,9 86 -
19:59 19,9 17,7 13,0 SW 17,0 1012,1 87 -
20:04 19,9 17,7 13,0 SW 18,0 1011,9 87 -
20:09 19,9 17,7 12,0 WSW 18,0 1011,7 87 -
20:14 19,9 17,7 12,0 SW 15,0 1011,8 87 -
20:19 19,9 17,7 12,0 SW 15,0 1011,8 87 -
20:24 19,9 17,7 17,0 SSW 20,0 1011,8 88 -
20:29 19,9 17,8 10,0 SW 15,0 1011,8 88 -
20:34 19,9 17,8 13,0 SW 20,0 1012,0 88 -
20:39 19,8 17,7 11,0 SW 17,0 1011,8 88 -
20:44 19,8 17,7 10,0 SW 11,0 1011,8 88 -
20:49 19,7 17,8 14,0 SSW 17,0 1011,7 89 -
20:54 19,7 17,8 15,0 WSW 18,0 1011,5 89 -
20:59 19,6 17,9 11,0 SSW 13,0 1011,6 90 -
21:04 19,6 17,9 11,0 SW 15,0 1011,6 90 -

Dados meteorológicos armazenados em Weather Underground. Original script b Jim McMurry. Rewritten for template use Leuven-Template